Main page
METAR-TAF:

METAR-TAF

Airports :

Oil platform

Heimdal, Norway

latitude: 59-34-12N, longitude: 2-13-48E, elevation: 10 m

Current weather observation

The report was made 34 minutes ago, at 00:20 UTC
Wind 11 kt from the South/Southeast
Temperature 7°C
Humidity 76%
Pressure 1027 hPa
Visibility 10 km or more

METAR: ENHM 210020Z AUTO 15011KT 9999NDV FEW020/// 07/03 Q1027 W10/S3

Time: 01:54 (00:54 UTC)

Forecast

The report was made 12 hours and 24 minutes ago, at 12:30 UTC
Forecast valid from 20 at 12 UTC to 20 at 18 UTC
Wind 12 kt from the East
Visibility 10 km or more
Broken clouds at a height of 3000 ft

TAF: ENHM 201230Z 2012/2018 09012KT 9999 BKN030

Weather observations and forecasts of more than 4000 airports (METAR and TAF reports).

The available stations are represented by yellow and red dots on the map.

Hover mouse over dot to see the name of the station.

Then click to see weather observations and forecasts.

To change the map : click on the green buttons with a black cross to zoom in, on the green button with a dash to zoom out, or on the green arrows for adjacent maps.


METAR-TAF: